createdAt,value
2023-04-02T00:01:20.179Z,80.60
2023-04-02T00:03:53.749Z,80.40
2023-04-02T00:06:33.147Z,80.50
2023-04-02T00:09:24.440Z,80.40
2023-04-02T00:11:54.780Z,80.30
2023-04-02T00:14:30.608Z,80.30
2023-04-02T00:17:02.326Z,79.70
2023-04-02T00:19:45.491Z,80.50
2023-04-02T00:22:28.151Z,80.60
2023-04-02T00:24:56.974Z,80.90
2023-04-02T00:27:24.127Z,80.70
2023-04-02T00:29:57.352Z,79.30
2023-04-02T00:32:32.397Z,80.00
2023-04-02T00:35:01.143Z,79.80
2023-04-02T00:37:38.620Z,79.80
2023-04-02T00:40:22.683Z,79.20
2023-04-02T00:42:50.855Z,78.40
2023-04-02T00:45:22.663Z,79.40
2023-04-02T00:47:50.558Z,79.30
2023-04-02T00:50:41.792Z,79.40
2023-04-02T00:53:21.896Z,78.80
2023-04-02T00:55:49.342Z,78.90
2023-04-02T00:58:36.760Z,78.20
2023-04-02T01:01:04.544Z,78.10
2023-04-02T01:03:38.936Z,78.20
2023-04-02T01:06:11.376Z,78.30
2023-04-02T01:09:08.116Z,78.00
2023-04-02T01:12:12.108Z,77.70
2023-04-02T01:14:53.983Z,77.60
2023-04-02T01:17:49.200Z,78.00
2023-04-02T01:20:53.686Z,77.70
2023-04-02T01:23:34.793Z,77.40
2023-04-02T01:26:28.333Z,77.60
2023-04-02T01:29:11.493Z,77.50
2023-04-02T01:31:40.419Z,77.50
2023-04-02T01:34:15.334Z,78.00
2023-04-02T01:37:32.209Z,77.70
2023-04-02T01:40:30.704Z,77.10
2023-04-02T01:43:35.994Z,77.80
2023-04-02T01:46:26.538Z,76.40
2023-04-02T01:48:55.709Z,77.20
2023-04-02T01:51:33.900Z,76.90
2023-04-02T01:54:06.208Z,77.10
2023-04-02T01:56:35.561Z,76.90
2023-04-02T01:59:05.953Z,77.20
2023-04-02T02:01:43.386Z,77.00
2023-04-02T02:04:16.409Z,75.80
2023-04-02T02:06:44.465Z,76.60
2023-04-02T02:09:23.080Z,77.20
2023-04-02T02:11:51.936Z,77.20
2023-04-02T02:14:24.750Z,77.70
2023-04-02T02:17:01.987Z,76.40
2023-04-02T02:19:34.311Z,76.50
2023-04-02T02:22:27.430Z,76.60
2023-04-02T02:24:56.664Z,76.30
2023-04-02T02:27:23.414Z,76.30
2023-04-02T02:30:18.247Z,76.50
2023-04-02T02:33:00.692Z,75.30
2023-04-02T02:35:46.953Z,75.70
2023-04-02T02:38:39.019Z,76.00
2023-04-02T02:41:27.940Z,75.20
2023-04-02T02:44:11.284Z,75.30
2023-04-02T02:46:49.996Z,75.50
2023-04-02T02:49:24.099Z,75.40
2023-04-02T02:52:06.505Z,75.50
2023-04-02T02:54:38.129Z,75.30
2023-04-02T02:57:13.189Z,75.40
2023-04-02T02:59:41.272Z,75.40
2023-04-02T03:02:09.074Z,75.00
2023-04-02T03:04:37.148Z,75.30
2023-04-02T03:07:06.596Z,75.20
2023-04-02T03:10:06.773Z,74.60
2023-04-02T03:12:54.719Z,73.40
2023-04-02T03:15:49.796Z,73.60
2023-04-02T03:18:34.962Z,74.00
2023-04-02T03:21:41.980Z,73.50
2023-04-02T03:24:26.679Z,73.90
2023-04-02T03:27:05.810Z,73.90
2023-04-02T03:29:39.664Z,74.60
2023-04-02T03:32:28.747Z,74.60
2023-04-02T03:35:08.545Z,74.20
2023-04-02T03:37:44.495Z,74.00
2023-04-02T03:40:38.489Z,74.60
2023-04-02T03:43:25.801Z,74.40
2023-04-02T03:46:14.037Z,74.00
2023-04-02T03:48:49.144Z,74.20
2023-04-02T03:51:30.706Z,74.50
2023-04-02T03:53:57.474Z,74.50
2023-04-02T03:56:40.026Z,74.60
2023-04-02T03:59:27.014Z,74.60
2023-04-02T04:02:06.561Z,74.90
2023-04-02T04:04:39.795Z,74.30
2023-04-02T04:07:32.486Z,75.00
2023-04-02T04:10:01.488Z,75.40
2023-04-02T04:12:40.229Z,74.20
2023-04-02T04:15:37.497Z,74.70
2023-04-02T04:18:35.080Z,74.90
2023-04-02T04:21:15.519Z,74.50
2023-04-02T04:23:50.918Z,74.80
2023-04-02T04:26:34.935Z,74.80
2023-04-02T04:29:38.178Z,74.80
2023-04-02T04:32:34.800Z,74.60
2023-04-02T04:35:38.901Z,73.80
2023-04-02T04:38:40.802Z,74.80
2023-04-02T04:41:24.348Z,74.20
2023-04-02T04:44:11.284Z,74.40
2023-04-02T04:46:42.418Z,74.50
2023-04-02T04:49:18.178Z,74.60
2023-04-02T04:51:55.768Z,74.20
2023-04-02T04:54:27.815Z,74.20
2023-04-02T04:57:01.955Z,74.20
2023-04-02T04:59:57.518Z,74.70
2023-04-02T05:02:32.374Z,73.10
2023-04-02T05:05:02.278Z,73.60
2023-04-02T05:07:45.506Z,73.70
2023-04-02T05:10:30.509Z,74.20
2023-04-02T05:13:14.135Z,74.00
2023-04-02T05:16:09.300Z,74.30
2023-04-02T05:19:07.987Z,73.60
2023-04-02T05:21:48.872Z,74.10
2023-04-02T05:25:08.461Z,73.80
2023-04-02T05:27:49.909Z,73.70
2023-04-02T05:30:47.082Z,73.90
2023-04-02T05:33:27.165Z,73.30
2023-04-02T05:36:02.406Z,73.30
2023-04-02T05:38:34.351Z,73.60
2023-04-02T05:41:08.013Z,73.60
2023-04-02T05:43:38.279Z,73.80
2023-04-02T05:46:17.379Z,73.60
2023-04-02T05:48:52.703Z,73.40
2023-04-02T05:51:29.558Z,72.70
2023-04-02T05:54:03.813Z,73.00
2023-04-02T05:56:44.956Z,71.70
2023-04-02T05:59:24.102Z,72.10
2023-04-02T06:02:03.564Z,72.40
2023-04-02T06:05:03.086Z,72.20
2023-04-02T06:07:57.241Z,71.90
2023-04-02T06:10:37.494Z,72.60
2023-04-02T06:13:08.965Z,72.50
2023-04-02T06:15:38.311Z,71.90
2023-04-02T06:18:09.593Z,72.00
2023-04-02T06:20:36.567Z,72.20
2023-04-02T06:23:31.264Z,72.30
2023-04-02T06:26:36.232Z,71.70
2023-04-02T06:29:40.430Z,71.50
2023-04-02T06:32:09.881Z,71.00
2023-04-02T06:34:40.829Z,71.30
2023-04-02T06:37:35.474Z,70.80
2023-04-02T06:40:04.096Z,69.90
2023-04-02T06:42:39.797Z,68.40
2023-04-02T06:45:16.726Z,69.80
2023-04-02T06:47:48.632Z,70.10
2023-04-02T06:50:37.403Z,69.80
2023-04-02T06:53:12.050Z,69.40
2023-04-02T06:55:52.824Z,69.90
2023-04-02T06:58:20.617Z,68.90
2023-04-02T07:00:50.397Z,69.60
2023-04-02T07:03:25.612Z,67.90
2023-04-02T07:05:52.499Z,68.30
2023-04-02T07:08:19.365Z,67.60
2023-04-02T07:10:46.658Z,68.20
2023-04-02T07:13:18.243Z,67.40
2023-04-02T07:15:47.850Z,66.40
2023-04-02T07:18:29.717Z,66.90
2023-04-02T07:20:57.071Z,65.80
2023-04-02T07:23:24.331Z,65.60
2023-04-02T07:25:54.777Z,67.00
2023-04-02T07:28:22.869Z,65.30
2023-04-02T07:30:50.631Z,65.90
2023-04-02T07:33:24.856Z,65.80
2023-04-02T07:35:54.414Z,64.60
2023-04-02T07:38:21.296Z,64.30
2023-04-02T07:40:48.117Z,65.00
2023-04-02T07:43:15.443Z,65.40
2023-04-02T07:45:42.344Z,64.60
2023-04-02T07:48:14.748Z,65.20
2023-04-02T07:50:41.867Z,63.80
2023-04-02T07:53:35.591Z,64.40
2023-04-02T07:56:04.050Z,62.50
2023-04-02T07:58:32.329Z,64.20
2023-04-02T08:01:01.610Z,62.80
2023-04-02T08:03:29.496Z,64.80
2023-04-02T08:05:58.866Z,65.00
2023-04-02T08:08:26.316Z,64.70
2023-04-02T08:10:55.916Z,63.80
2023-04-02T08:13:22.869Z,64.50
2023-04-02T08:15:49.772Z,64.50
2023-04-02T08:18:16.525Z,64.10
2023-04-02T08:20:43.261Z,62.90
2023-04-02T08:23:17.125Z,64.20
2023-04-02T08:25:45.013Z,62.90
2023-04-02T08:28:12.331Z,64.00
2023-04-02T08:30:39.144Z,63.20
2023-04-02T08:33:06.534Z,63.60
2023-04-02T08:35:34.008Z,64.00
2023-04-02T08:38:01.621Z,61.90
2023-04-02T08:40:37.932Z,62.70
2023-04-02T08:43:21.170Z,62.80
2023-04-02T08:46:18.943Z,62.80
2023-04-02T08:48:57.050Z,62.50
2023-04-02T08:51:32.518Z,62.10
2023-04-02T08:54:44.279Z,62.00
2023-04-02T08:57:44.941Z,61.20
2023-04-02T09:00:38.029Z,62.50
2023-04-02T09:03:22.463Z,61.00
2023-04-02T09:05:51.895Z,62.20
2023-04-02T09:08:25.541Z,61.20
2023-04-02T09:11:01.989Z,62.40
2023-04-02T09:13:33.037Z,61.00
2023-04-02T09:16:16.799Z,60.30
2023-04-02T09:18:45.623Z,60.70
2023-04-02T09:21:43.009Z,58.90
2023-04-02T09:24:15.910Z,60.40
2023-04-02T09:26:42.719Z,60.20
2023-04-02T09:29:12.478Z,61.40
2023-04-02T09:31:45.060Z,60.50
2023-04-02T09:34:37.067Z,59.70
2023-04-02T09:37:19.025Z,60.30
2023-04-02T09:39:46.102Z,59.70
2023-04-02T09:42:34.428Z,60.10
2023-04-02T09:45:24.360Z,60.00
2023-04-02T09:47:55.992Z,60.00
2023-04-02T09:52:54.898Z,59.90
2023-04-02T09:55:31.729Z,56.90
2023-04-02T09:58:17.189Z,58.70
2023-04-02T10:00:54.087Z,59.00
2023-04-02T10:03:33.107Z,58.40
2023-04-02T10:06:14.630Z,58.60
2023-04-02T10:08:44.542Z,58.40
2023-04-02T10:11:36.511Z,58.50
2023-04-02T10:14:25.840Z,57.20
2023-04-02T10:16:58.352Z,57.10
2023-04-02T10:19:41.133Z,57.70
2023-04-02T10:22:19.274Z,58.00
2023-04-02T10:24:46.732Z,58.30
2023-04-02T10:27:41.833Z,58.50
2023-04-02T10:30:30.621Z,58.20
2023-04-02T10:33:37.128Z,57.80
2023-04-02T10:36:08.865Z,56.20
2023-04-02T10:39:06.064Z,57.70
2023-04-02T10:41:39.241Z,57.40
2023-04-02T10:44:20.463Z,57.50
2023-04-02T10:47:38.004Z,57.30
2023-04-02T10:50:33.421Z,57.00
2023-04-02T10:53:16.482Z,57.10
2023-04-02T10:55:58.892Z,56.80
2023-04-02T10:58:31.770Z,57.00
2023-04-02T11:01:17.437Z,56.00
2023-04-02T11:03:58.766Z,57.10
2023-04-02T11:06:40.860Z,56.50
2023-04-02T11:09:18.872Z,56.50
2023-04-02T11:11:50.903Z,56.80
2023-04-02T11:14:24.517Z,56.70
2023-04-02T11:16:54.192Z,57.40
2023-04-02T11:19:27.088Z,57.40
2023-04-02T11:22:06.033Z,57.30
2023-04-02T11:24:51.183Z,57.20
2023-04-02T11:27:48.229Z,57.20
2023-04-02T11:30:27.039Z,56.10
2023-04-02T11:32:55.155Z,56.90
2023-04-02T11:35:31.262Z,57.40
2023-04-02T11:38:11.236Z,56.70
2023-04-02T11:40:56.975Z,55.80
2023-04-02T11:43:32.899Z,56.20
2023-04-02T11:46:04.707Z,56.30
2023-04-02T11:48:37.932Z,56.70
2023-04-02T11:51:56.404Z,56.00
2023-04-02T11:54:37.997Z,56.30
2023-04-02T11:57:52.424Z,56.50
2023-04-02T12:01:19.409Z,54.80
2023-04-02T12:04:02.259Z,56.10
2023-04-02T12:06:59.970Z,57.10
2023-04-02T12:09:31.565Z,56.80
2023-04-02T12:12:24.132Z,56.70
2023-04-02T12:14:57.392Z,57.00
2023-04-02T12:17:38.277Z,56.90
2023-04-02T12:20:22.833Z,56.30
2023-04-02T12:22:54.057Z,55.60
2023-04-02T12:25:20.687Z,56.70
2023-04-02T12:27:47.787Z,55.80
2023-04-02T12:30:23.175Z,55.90
2023-04-02T12:32:50.600Z,56.40
2023-04-02T12:35:44.863Z,55.10
2023-04-02T12:38:23.497Z,54.80
2023-04-02T12:41:29.971Z,55.10
2023-04-02T12:44:16.230Z,55.00
2023-04-02T12:46:45.443Z,55.20
2023-04-02T12:49:33.863Z,55.80
2023-04-02T12:52:09.161Z,54.60
2023-04-02T12:54:46.872Z,55.50
2023-04-02T12:57:22.974Z,55.00
2023-04-02T12:59:50.042Z,53.20
2023-04-02T13:02:27.334Z,54.10
2023-04-02T13:05:00.765Z,53.50
2023-04-02T13:07:32.833Z,54.70
2023-04-02T13:10:05.773Z,54.50
2023-04-02T13:12:39.403Z,53.80
2023-04-02T13:15:31.590Z,53.70
2023-04-02T13:18:07.573Z,53.50
2023-04-02T13:20:37.274Z,55.00
2023-04-02T13:23:29.197Z,53.80
2023-04-02T13:26:01.481Z,53.30
2023-04-02T13:28:29.238Z,54.00
2023-04-02T13:30:56.328Z,53.00
2023-04-02T13:33:23.232Z,54.20
2023-04-02T13:35:50.488Z,53.80
2023-04-02T13:38:17.617Z,53.40
2023-04-02T13:40:44.534Z,53.40
2023-04-02T13:43:19.360Z,53.10
2023-04-02T13:45:54.250Z,52.90
2023-04-02T13:48:24.576Z,52.70
2023-04-02T13:50:52.719Z,53.10
2023-04-02T13:53:33.157Z,53.10
2023-04-02T13:58:27.654Z,53.10
2023-04-02T14:00:55.039Z,53.50
2023-04-02T14:03:22.899Z,53.00
2023-04-02T14:06:20.153Z,52.80
2023-04-02T14:09:15.205Z,52.60
2023-04-02T14:12:35.419Z,52.60
2023-04-02T14:15:27.612Z,51.70
2023-04-02T14:18:26.019Z,52.40
2023-04-02T14:21:18.748Z,51.80
2023-04-02T14:24:15.009Z,52.60
2023-04-02T14:27:40.844Z,51.60
2023-04-02T14:30:19.604Z,51.90
2023-04-02T14:33:23.491Z,52.70
2023-04-02T14:36:07.693Z,52.50
2023-04-02T14:38:43.927Z,52.70
2023-04-02T14:41:28.949Z,52.20
2023-04-02T14:44:05.982Z,53.20
2023-04-02T14:46:37.594Z,53.00
2023-04-02T14:49:22.928Z,53.50
2023-04-02T14:52:09.150Z,53.30
2023-04-02T14:54:45.323Z,52.90
2023-04-02T14:57:37.760Z,53.10
2023-04-02T15:00:28.843Z,51.60
2023-04-02T15:03:09.449Z,52.50
2023-04-02T15:05:54.637Z,52.50
2023-04-02T15:08:31.816Z,52.80
2023-04-02T15:11:22.524Z,53.40
2023-04-02T15:13:57.435Z,52.10
2023-04-02T15:16:26.853Z,52.20
2023-04-02T15:18:57.746Z,52.70
2023-04-02T15:21:55.863Z,52.20
2023-04-02T15:25:03.141Z,52.60
2023-04-02T15:28:18.353Z,52.90
2023-04-02T15:30:45.773Z,53.10
2023-04-02T15:33:45.601Z,52.20
2023-04-02T15:36:41.552Z,52.30
2023-04-02T15:39:42.551Z,52.70
2023-04-02T15:42:21.192Z,52.50
2023-04-02T15:45:13.157Z,52.90
2023-04-02T15:48:07.104Z,52.80
2023-04-02T15:50:50.360Z,52.80
2023-04-02T15:53:54.633Z,52.60
2023-04-02T15:56:47.905Z,52.80
2023-04-02T16:00:16.482Z,51.80
2023-04-02T16:03:18.605Z,52.20
2023-04-02T16:06:16.838Z,52.50
2023-04-02T16:09:27.237Z,53.00
2023-04-02T16:12:19.471Z,52.50
2023-04-02T16:14:49.168Z,52.10
2023-04-02T16:17:25.715Z,52.50
2023-04-02T16:20:15.768Z,52.80
2023-04-02T16:22:59.271Z,52.40
2023-04-02T16:25:41.201Z,52.70
2023-04-02T16:28:29.632Z,52.90
2023-04-02T16:31:14.059Z,52.90
2023-04-02T16:34:11.564Z,52.70
2023-04-02T16:37:00.443Z,52.70
2023-04-02T16:39:49.622Z,52.50
2023-04-02T16:42:48.156Z,52.50
2023-04-02T16:45:35.212Z,52.90
2023-04-02T16:48:12.258Z,53.00
2023-04-02T16:51:11.543Z,53.00
2023-04-02T16:54:05.493Z,53.50
2023-04-02T16:57:17.131Z,53.50
2023-04-02T17:00:24.071Z,53.10
2023-04-02T17:03:20.951Z,53.80
2023-04-02T17:06:06.301Z,54.50
2023-04-02T17:08:43.208Z,53.90
2023-04-02T17:11:31.266Z,53.70
2023-04-02T17:14:10.588Z,54.00
2023-04-02T17:16:44.571Z,54.10
2023-04-02T17:19:13.861Z,54.20
2023-04-02T17:24:14.305Z,53.50
2023-04-02T17:26:47.560Z,54.10
2023-04-02T17:29:35.013Z,54.20
2023-04-02T17:32:06.264Z,54.10
2023-04-02T17:34:33.104Z,54.30
2023-04-02T17:37:12.741Z,54.40
2023-04-02T17:40:04.137Z,54.70
2023-04-02T17:43:04.769Z,54.70
2023-04-02T17:45:52.979Z,54.50
2023-04-02T17:48:44.743Z,55.00
2023-04-02T17:51:33.061Z,55.60
2023-04-02T17:54:25.427Z,55.10
2023-04-02T17:57:10.273Z,55.30
2023-04-02T18:00:02.474Z,54.70
2023-04-02T18:03:00.122Z,55.40
2023-04-02T18:05:54.320Z,55.20
2023-04-02T18:09:01.977Z,55.80
2023-04-02T18:12:43.495Z,55.40
2023-04-02T18:15:59.940Z,56.00
2023-04-02T18:18:36.385Z,56.20
2023-04-02T18:21:33.489Z,56.30
2023-04-02T18:24:41.170Z,56.50
2023-04-02T18:27:30.488Z,56.60
2023-04-02T18:30:35.157Z,56.80
2023-04-02T18:33:16.107Z,56.90
2023-04-02T18:36:08.185Z,56.90
2023-04-02T18:39:00.104Z,57.00
2023-04-02T18:41:41.356Z,57.00
2023-04-02T18:47:06.056Z,56.80
2023-04-02T18:49:40.327Z,57.00
2023-04-02T18:52:15.507Z,57.00
2023-04-02T18:55:01.223Z,57.60
2023-04-02T18:57:34.511Z,57.70
2023-04-02T19:00:26.295Z,57.40
2023-04-02T19:03:20.828Z,57.50
2023-04-02T19:05:57.576Z,58.00
2023-04-02T19:09:03.486Z,58.10
2023-04-02T19:11:31.273Z,58.30
2023-04-02T19:14:33.438Z,58.80
2023-04-02T19:17:17.011Z,58.50
2023-04-02T19:20:18.289Z,58.50
2023-04-02T19:23:13.827Z,58.60
2023-04-02T19:26:08.680Z,58.70
2023-04-02T19:29:29.726Z,58.70
2023-04-02T19:32:38.022Z,58.90
2023-04-02T19:35:18.916Z,58.80
2023-04-02T19:38:21.863Z,59.00
2023-04-02T19:41:22.640Z,59.00
2023-04-02T19:43:49.386Z,59.10
2023-04-02T19:46:16.317Z,59.10
2023-04-02T19:48:57.370Z,59.10
2023-04-02T19:51:24.520Z,59.20
2023-04-02T19:53:51.328Z,59.20
2023-04-02T19:58:45.336Z,58.80
2023-04-02T20:01:12.374Z,59.40
2023-04-02T20:03:39.719Z,59.40
2023-04-02T20:06:06.776Z,59.40
2023-04-02T20:08:33.661Z,59.40
2023-04-02T20:11:00.531Z,59.40
2023-04-02T20:13:27.772Z,59.40
2023-04-02T20:15:59.188Z,59.50
2023-04-02T20:18:26.461Z,59.60
2023-04-02T20:20:53.452Z,59.60
2023-04-02T20:23:20.431Z,59.50
2023-04-02T20:25:55.579Z,59.60
2023-04-02T20:28:24.900Z,59.80
2023-04-02T20:30:52.389Z,59.80
2023-04-02T20:33:22.844Z,59.20
2023-04-02T20:35:52.010Z,59.80
2023-04-02T20:40:52.072Z,59.30
2023-04-02T20:43:18.990Z,59.80
2023-04-02T20:46:09.471Z,59.80
2023-04-02T20:48:37.786Z,59.40
2023-04-02T20:51:08.182Z,59.40
2023-04-02T20:53:37.243Z,59.90
2023-04-02T20:56:14.313Z,59.90
2023-04-02T20:58:42.836Z,59.50
2023-04-02T21:01:28.779Z,60.00
2023-04-02T21:04:02.143Z,60.10
2023-04-02T21:06:37.345Z,60.00
2023-04-02T21:09:08.555Z,60.00
2023-04-02T21:14:04.266Z,59.50
2023-04-02T21:16:32.150Z,60.00
2023-04-02T21:19:04.537Z,60.10
2023-04-02T21:21:32.011Z,60.10
2023-04-02T21:24:02.478Z,60.30
2023-04-02T21:26:34.620Z,60.30
2023-04-02T21:29:02.238Z,60.40
2023-04-02T21:31:35.028Z,60.40
2023-04-02T21:34:02.280Z,60.50
2023-04-02T21:36:36.143Z,60.50
2023-04-02T21:39:09.871Z,60.60
2023-04-02T21:41:41.199Z,60.70
2023-04-02T21:44:12.552Z,60.70
2023-04-02T21:46:42.412Z,60.80
2023-04-02T21:49:15.474Z,60.70
2023-04-02T21:51:44.345Z,60.30
2023-04-02T21:54:11.253Z,60.90
2023-04-02T21:56:41.783Z,60.80
2023-04-02T21:59:11.923Z,60.90
2023-04-02T22:01:46.205Z,61.00
2023-04-02T22:04:20.842Z,61.30
2023-04-02T22:06:48.798Z,61.20
2023-04-02T22:09:20.470Z,61.20
2023-04-02T22:11:51.940Z,60.60
2023-04-02T22:14:18.845Z,61.30
2023-04-02T22:16:45.740Z,61.40
2023-04-02T22:19:15.637Z,61.30
2023-04-02T22:21:43.485Z,61.40
2023-04-02T22:24:15.442Z,61.50
2023-04-02T22:26:43.150Z,61.70
2023-04-02T22:29:10.298Z,61.70
2023-04-02T22:31:38.217Z,61.80
2023-04-02T22:34:06.536Z,61.70
2023-04-02T22:36:34.250Z,61.10
2023-04-02T22:41:32.666Z,61.20
2023-04-02T22:44:01.672Z,62.00
2023-04-02T22:46:30.182Z,62.00
2023-04-02T22:48:58.010Z,61.90
2023-04-02T22:51:27.585Z,62.00
2023-04-02T22:53:56.228Z,62.00
2023-04-02T22:56:32.060Z,62.10
2023-04-02T22:58:59.698Z,62.30
2023-04-02T23:01:35.438Z,62.40
2023-04-02T23:04:02.375Z,62.30
2023-04-02T23:06:29.471Z,62.40
2023-04-02T23:08:56.454Z,62.30
2023-04-02T23:11:28.189Z,61.70
2023-04-02T23:13:57.459Z,62.40
2023-04-02T23:16:27.876Z,62.30
2023-04-02T23:18:56.172Z,62.50
2023-04-02T23:21:24.439Z,62.40
2023-04-02T23:23:52.470Z,62.50
2023-04-02T23:26:29.353Z,62.40
2023-04-02T23:28:58.814Z,62.50
2023-04-02T23:31:26.370Z,62.40
2023-04-02T23:33:53.961Z,62.50
2023-04-02T23:36:29.892Z,62.80
2023-04-02T23:39:01.413Z,62.50
2023-04-02T23:41:30.451Z,61.80
2023-04-02T23:43:58.530Z,62.40
2023-04-02T23:46:26.557Z,62.40
2023-04-02T23:48:54.544Z,61.80
2023-04-02T23:51:22.527Z,62.40
2023-04-02T23:53:51.321Z,62.40
2023-04-02T23:56:19.736Z,62.50
2023-04-02T23:58:46.533Z,62.40
